createdAt,value
2017-05-27T00:00:00.878Z,18.40
2017-05-27T00:01:01.469Z,18.35
2017-05-27T00:02:02.043Z,18.25
2017-05-27T00:03:02.621Z,18.50
2017-05-27T00:04:03.197Z,18.35
2017-05-27T00:05:03.773Z,18.34
2017-05-27T00:06:04.349Z,18.40
2017-05-27T00:07:04.926Z,18.28
2017-05-27T00:08:05.503Z,18.33
2017-05-27T00:09:06.080Z,18.49
2017-05-27T00:10:06.656Z,18.33
2017-05-27T00:11:07.233Z,18.33
2017-05-27T00:12:07.811Z,18.37
2017-05-27T00:13:08.388Z,18.23
2017-05-27T00:14:08.966Z,18.38
2017-05-27T00:15:09.543Z,18.28
2017-05-27T00:16:10.132Z,18.18
2017-05-27T00:17:10.711Z,18.11
2017-05-27T00:18:11.293Z,18.10
2017-05-27T00:19:11.868Z,18.05
2017-05-27T00:20:12.444Z,17.94
2017-05-27T00:21:13.021Z,18.07
2017-05-27T00:22:13.598Z,18.23
2017-05-27T00:23:14.175Z,18.19
2017-05-27T00:24:14.751Z,18.28
2017-05-27T00:25:15.330Z,18.07
2017-05-27T00:26:15.905Z,18.16
2017-05-27T00:27:16.498Z,18.23
2017-05-27T00:28:17.072Z,18.00
2017-05-27T00:29:17.649Z,18.10
2017-05-27T00:30:18.227Z,18.10
2017-05-27T00:31:18.816Z,18.00
2017-05-27T00:32:19.393Z,18.25
2017-05-27T00:33:19.982Z,18.19
2017-05-27T00:34:20.557Z,18.05
2017-05-27T00:35:21.133Z,18.15
2017-05-27T00:36:21.709Z,18.03
2017-05-27T00:37:22.286Z,18.01
2017-05-27T00:38:22.860Z,18.13
2017-05-27T00:39:23.437Z,18.03
2017-05-27T00:40:24.015Z,18.22
2017-05-27T00:41:24.592Z,18.11
2017-05-27T00:42:25.170Z,18.15
2017-05-27T00:43:25.747Z,18.07
2017-05-27T00:44:26.326Z,18.16
2017-05-27T00:45:26.901Z,18.11
2017-05-27T00:46:27.480Z,18.25
2017-05-27T00:47:28.055Z,18.34
2017-05-27T00:48:28.631Z,18.22
2017-05-27T00:49:29.209Z,18.28
2017-05-27T00:50:29.784Z,18.15
2017-05-27T00:51:30.361Z,18.07
2017-05-27T00:52:30.937Z,18.11
2017-05-27T00:53:31.513Z,18.10
2017-05-27T00:54:32.090Z,18.10
2017-05-27T00:55:32.665Z,18.08
2017-05-27T00:56:33.241Z,18.00
2017-05-27T00:57:33.831Z,18.08
2017-05-27T00:58:34.420Z,18.04
2017-05-27T00:59:34.997Z,17.97
2017-05-27T01:00:35.575Z,17.94
2017-05-27T01:01:36.151Z,18.15
2017-05-27T01:02:36.729Z,17.97
2017-05-27T01:03:37.305Z,18.04
2017-05-27T01:04:37.885Z,18.18
2017-05-27T01:05:38.459Z,18.13
2017-05-27T01:06:39.036Z,18.03
2017-05-27T01:07:39.613Z,18.08
2017-05-27T01:08:40.190Z,18.28
2017-05-27T01:09:40.778Z,18.22
2017-05-27T01:10:41.354Z,18.18
2017-05-27T01:11:41.932Z,18.25
2017-05-27T01:12:42.509Z,18.41
2017-05-27T01:13:43.086Z,18.38
2017-05-27T01:14:43.662Z,18.31
2017-05-27T01:15:44.238Z,18.26
2017-05-27T01:16:44.815Z,18.11
2017-05-27T01:17:45.391Z,18.04
2017-05-27T01:18:45.968Z,17.87
2017-05-27T01:19:46.545Z,17.94
2017-05-27T01:20:47.122Z,17.54
2017-05-27T01:21:47.698Z,17.83
2017-05-27T01:22:48.276Z,17.80
2017-05-27T01:23:48.854Z,17.85
2017-05-27T01:24:49.431Z,17.89
2017-05-27T01:25:50.009Z,18.00
2017-05-27T01:26:50.586Z,17.90
2017-05-27T01:27:51.162Z,17.94
2017-05-27T01:28:51.739Z,17.95
2017-05-27T01:29:52.319Z,17.95
2017-05-27T01:30:52.893Z,17.97
2017-05-27T01:31:53.469Z,18.05
2017-05-27T01:32:54.045Z,17.97
2017-05-27T01:33:54.621Z,18.04
2017-05-27T01:34:55.197Z,17.95
2017-05-27T01:35:55.772Z,17.92
2017-05-27T01:36:56.349Z,17.68
2017-05-27T01:37:56.927Z,17.63
2017-05-27T01:38:57.507Z,17.59
2017-05-27T01:39:58.080Z,17.64
2017-05-27T01:40:58.655Z,17.54
2017-05-27T01:41:59.231Z,17.22
2017-05-27T01:42:59.808Z,16.96
2017-05-27T01:44:00.387Z,16.75
2017-05-27T01:45:00.966Z,16.78
2017-05-27T01:46:01.545Z,16.79
2017-05-27T01:47:02.124Z,17.31
2017-05-27T01:48:02.712Z,17.41
2017-05-27T01:49:03.292Z,17.85
2017-05-27T01:50:03.870Z,17.83
2017-05-27T01:51:04.447Z,17.56
2017-05-27T01:52:05.024Z,17.31
2017-05-27T01:53:05.602Z,17.22
2017-05-27T01:54:06.179Z,16.93
2017-05-27T01:55:06.757Z,17.19
2017-05-27T01:56:07.334Z,17.15
2017-05-27T01:57:07.911Z,17.26
2017-05-27T01:58:08.488Z,17.79
2017-05-27T01:59:09.066Z,17.63
2017-05-27T02:00:09.647Z,17.85
2017-05-27T02:01:10.223Z,17.78
2017-05-27T02:02:10.802Z,17.98
2017-05-27T02:03:11.393Z,17.85
2017-05-27T02:04:11.971Z,17.79
2017-05-27T02:05:12.551Z,17.64
2017-05-27T02:06:13.128Z,17.78
2017-05-27T02:07:13.721Z,17.80
2017-05-27T02:08:14.300Z,17.78
2017-05-27T02:09:14.879Z,17.65
2017-05-27T02:10:15.457Z,17.95
2017-05-27T02:11:16.034Z,17.94
2017-05-27T02:12:16.612Z,17.97
2017-05-27T02:13:17.189Z,17.78
2017-05-27T02:14:17.766Z,17.74
2017-05-27T02:15:18.344Z,17.72
2017-05-27T02:16:18.920Z,17.98
2017-05-27T02:17:19.510Z,17.86
2017-05-27T02:18:20.088Z,17.44
2017-05-27T02:19:20.666Z,17.48
2017-05-27T02:20:21.244Z,17.82
2017-05-27T02:21:21.822Z,17.63
2017-05-27T02:22:22.401Z,17.41
2017-05-27T02:23:22.977Z,16.94
2017-05-27T02:24:23.555Z,16.76
2017-05-27T02:25:24.146Z,16.87
2017-05-27T02:26:24.725Z,17.14
2017-05-27T02:27:25.320Z,17.41
2017-05-27T02:28:25.895Z,17.42
2017-05-27T02:29:26.474Z,17.57
2017-05-27T02:30:27.054Z,17.38
2017-05-27T02:31:27.629Z,17.59
2017-05-27T02:32:28.207Z,17.60
2017-05-27T02:33:28.784Z,17.48
2017-05-27T02:34:29.362Z,17.39
2017-05-27T02:35:29.938Z,17.74
2017-05-27T02:36:30.516Z,17.56
2017-05-27T02:37:31.093Z,17.57
2017-05-27T02:38:31.670Z,17.24
2017-05-27T02:39:32.250Z,17.36
2017-05-27T02:40:32.829Z,17.31
2017-05-27T02:41:33.405Z,17.38
2017-05-27T02:42:33.984Z,17.22
2017-05-27T02:43:34.562Z,17.31
2017-05-27T02:44:35.141Z,17.26
2017-05-27T02:45:35.719Z,17.20
2017-05-27T02:46:36.298Z,17.33
2017-05-27T02:47:36.875Z,16.99
2017-05-27T02:48:37.454Z,17.12
2017-05-27T02:49:38.032Z,17.23
2017-05-27T02:50:38.608Z,17.15
2017-05-27T02:51:39.199Z,17.30
2017-05-27T02:52:39.776Z,16.97
2017-05-27T02:53:40.353Z,16.54
2017-05-27T02:54:40.931Z,16.72
2017-05-27T02:55:41.508Z,16.87
2017-05-27T02:56:42.086Z,17.11
2017-05-27T02:57:42.663Z,17.23
2017-05-27T02:58:43.240Z,17.34
2017-05-27T02:59:43.818Z,17.29
2017-05-27T03:00:44.397Z,17.26
2017-05-27T03:01:44.976Z,16.99
2017-05-27T03:02:45.555Z,16.84
2017-05-27T03:03:46.134Z,16.51
2017-05-27T03:04:46.713Z,16.54
2017-05-27T03:05:47.290Z,16.83
2017-05-27T03:06:47.870Z,16.68
2017-05-27T03:07:48.446Z,16.68
2017-05-27T03:08:49.023Z,16.84
2017-05-27T03:09:49.600Z,17.23
2017-05-27T03:10:50.196Z,17.19
2017-05-27T03:11:50.770Z,17.22
2017-05-27T03:12:51.346Z,17.16
2017-05-27T03:13:51.924Z,16.91
2017-05-27T03:14:52.502Z,16.94
2017-05-27T03:15:53.079Z,17.15
2017-05-27T03:16:53.658Z,17.22
2017-05-27T03:17:54.250Z,17.23
2017-05-27T03:18:54.828Z,17.06
2017-05-27T03:19:55.407Z,17.04
2017-05-27T03:20:55.986Z,17.19
2017-05-27T03:21:56.567Z,17.27
2017-05-27T03:22:57.146Z,17.29
2017-05-27T03:23:57.726Z,17.23
2017-05-27T03:24:58.305Z,17.22
2017-05-27T03:25:58.884Z,17.20
2017-05-27T03:26:59.463Z,17.46
2017-05-27T03:28:00.042Z,17.42
2017-05-27T03:29:00.622Z,17.19
2017-05-27T03:30:01.213Z,17.16
2017-05-27T03:31:01.806Z,17.15
2017-05-27T03:32:02.384Z,17.15
2017-05-27T03:33:02.979Z,17.27
2017-05-27T03:34:03.554Z,17.34
2017-05-27T03:35:04.134Z,17.29
2017-05-27T03:36:04.714Z,17.30
2017-05-27T03:37:05.291Z,17.02
2017-05-27T03:38:05.872Z,17.34
2017-05-27T03:39:06.450Z,17.44
2017-05-27T03:40:07.031Z,17.42
2017-05-27T03:41:07.610Z,17.27
2017-05-27T03:42:08.188Z,17.45
2017-05-27T03:43:08.767Z,17.57
2017-05-27T03:44:09.344Z,17.56
2017-05-27T03:45:09.924Z,17.51
2017-05-27T03:46:10.503Z,17.38
2017-05-27T03:47:11.082Z,17.05
2017-05-27T03:48:11.673Z,17.16
2017-05-27T03:49:12.254Z,17.26
2017-05-27T03:50:12.835Z,17.34
2017-05-27T03:51:13.414Z,17.14
2017-05-27T03:52:13.995Z,17.31
2017-05-27T03:53:14.574Z,17.36
2017-05-27T03:54:15.154Z,17.39
2017-05-27T03:55:15.735Z,17.33
2017-05-27T03:56:16.314Z,17.41
2017-05-27T03:57:16.895Z,17.27
2017-05-27T03:58:17.474Z,16.99
2017-05-27T03:59:18.054Z,16.96
2017-05-27T04:00:18.635Z,17.29
2017-05-27T04:01:19.213Z,17.30
2017-05-27T04:02:19.795Z,17.27
2017-05-27T04:03:20.374Z,17.39
2017-05-27T04:04:20.952Z,17.63
2017-05-27T04:05:21.532Z,17.64
2017-05-27T04:06:22.113Z,17.67
2017-05-27T04:07:22.694Z,17.65
2017-05-27T04:08:23.275Z,17.59
2017-05-27T04:09:23.855Z,17.68
2017-05-27T04:10:24.433Z,17.70
2017-05-27T04:11:25.012Z,17.80
2017-05-27T04:12:25.592Z,17.85
2017-05-27T04:13:26.175Z,17.98
2017-05-27T04:14:26.755Z,17.83
2017-05-27T04:15:27.336Z,17.82
2017-05-27T04:16:27.930Z,17.89
2017-05-27T04:17:28.509Z,17.97
2017-05-27T04:18:29.101Z,17.87
2017-05-27T04:19:29.681Z,17.98
2017-05-27T04:20:30.261Z,18.10
2017-05-27T04:21:30.876Z,18.23
2017-05-27T04:22:31.423Z,18.19
2017-05-27T04:23:32.006Z,18.04
2017-05-27T04:24:32.587Z,18.15
2017-05-27T04:25:33.169Z,18.19
2017-05-27T04:26:33.750Z,18.13
2017-05-27T04:27:34.383Z,18.05
2017-05-27T04:28:34.912Z,17.97
2017-05-27T04:29:35.492Z,17.94
2017-05-27T04:30:36.074Z,17.97
2017-05-27T04:31:36.658Z,18.10
2017-05-27T04:32:37.252Z,18.11
2017-05-27T04:33:37.834Z,18.28
2017-05-27T04:34:38.415Z,18.22
2017-05-27T04:35:38.997Z,18.29
2017-05-27T04:36:39.579Z,18.13
2017-05-27T04:37:40.162Z,18.05
2017-05-27T04:38:40.744Z,18.08
2017-05-27T04:39:41.324Z,18.33
2017-05-27T04:40:41.906Z,18.47
2017-05-27T04:41:42.487Z,18.35
2017-05-27T04:42:43.069Z,18.25
2017-05-27T04:43:43.650Z,18.28
2017-05-27T04:44:44.232Z,18.23
2017-05-27T04:45:44.816Z,18.47
2017-05-27T04:46:45.398Z,18.37
2017-05-27T04:47:45.980Z,18.43
2017-05-27T04:48:46.562Z,18.38
2017-05-27T04:49:47.143Z,18.60
2017-05-27T04:50:47.726Z,18.63
2017-05-27T04:51:48.307Z,18.66
2017-05-27T04:52:48.888Z,18.71
2017-05-27T04:53:49.470Z,18.62
2017-05-27T04:54:50.063Z,18.70
2017-05-27T04:55:50.646Z,18.65
2017-05-27T04:56:51.229Z,18.77
2017-05-27T04:57:51.824Z,18.62
2017-05-27T04:58:52.405Z,18.65
2017-05-27T04:59:52.987Z,18.68
2017-05-27T05:00:53.570Z,18.78
2017-05-27T05:01:54.152Z,18.90
2017-05-27T05:02:54.734Z,18.84
2017-05-27T05:03:55.315Z,18.92
2017-05-27T05:04:55.897Z,18.93
2017-05-27T05:05:56.481Z,18.98
2017-05-27T05:06:57.062Z,19.07
2017-05-27T05:07:57.643Z,19.00
2017-05-27T05:08:58.225Z,19.08
2017-05-27T05:09:58.807Z,19.07
2017-05-27T05:10:59.391Z,19.00
2017-05-27T05:11:59.973Z,19.08
2017-05-27T05:13:00.554Z,19.21
2017-05-27T05:14:01.142Z,19.24
2017-05-27T05:15:01.731Z,19.15
2017-05-27T05:16:02.315Z,19.33
2017-05-27T05:17:02.897Z,19.27
2017-05-27T05:18:03.479Z,19.02
2017-05-27T05:19:04.059Z,19.39
2017-05-27T05:20:04.643Z,19.47
2017-05-27T05:21:05.225Z,19.15
2017-05-27T05:22:05.808Z,18.96
2017-05-27T05:23:06.390Z,19.33
2017-05-27T05:24:06.972Z,19.41
2017-05-27T05:25:07.556Z,19.48
2017-05-27T05:26:08.137Z,19.48
2017-05-27T05:27:08.736Z,19.44
2017-05-27T05:28:09.328Z,19.52
2017-05-27T05:29:09.912Z,19.40
2017-05-27T05:30:10.493Z,19.48
2017-05-27T05:31:11.076Z,19.55
2017-05-27T05:32:11.660Z,19.51
2017-05-27T05:33:12.242Z,19.64
2017-05-27T05:34:12.823Z,19.91
2017-05-27T05:35:13.421Z,19.86
2017-05-27T05:36:14.016Z,19.89
2017-05-27T05:37:14.599Z,19.74
2017-05-27T05:38:15.183Z,19.96
2017-05-27T05:39:15.766Z,19.73
2017-05-27T05:40:16.348Z,19.94
2017-05-27T05:41:16.929Z,19.91
2017-05-27T05:42:17.512Z,20.00
2017-05-27T05:43:18.095Z,20.00
2017-05-27T05:44:18.678Z,20.04
2017-05-27T05:45:19.261Z,20.13
2017-05-27T05:46:19.855Z,20.03
2017-05-27T05:47:20.450Z,19.86
2017-05-27T05:48:21.033Z,19.62
2017-05-27T05:49:21.627Z,19.84
2017-05-27T05:50:22.209Z,19.91
2017-05-27T05:51:22.791Z,20.07
2017-05-27T05:52:23.374Z,20.29
2017-05-27T05:53:23.957Z,20.44
2017-05-27T05:54:24.541Z,20.25
2017-05-27T05:55:25.124Z,20.29
2017-05-27T05:56:25.705Z,20.37
2017-05-27T05:57:26.289Z,20.37
2017-05-27T05:58:26.871Z,20.51
2017-05-27T05:59:27.454Z,20.58
2017-05-27T06:00:28.050Z,20.69
2017-05-27T06:01:28.633Z,20.81
2017-05-27T06:02:29.214Z,20.67
2017-05-27T06:03:29.799Z,20.55
2017-05-27T06:04:30.381Z,20.81
2017-05-27T06:05:30.965Z,20.88
2017-05-27T06:06:31.547Z,20.93
2017-05-27T06:07:32.131Z,21.03
2017-05-27T06:08:32.715Z,21.17
2017-05-27T06:09:33.297Z,21.02
2017-05-27T06:10:33.893Z,20.95
2017-05-27T06:11:34.476Z,20.88
2017-05-27T06:12:35.059Z,20.82
2017-05-27T06:13:35.641Z,20.87
2017-05-27T06:14:36.226Z,21.12
2017-05-27T06:15:36.809Z,21.29
2017-05-27T06:16:37.391Z,21.33
2017-05-27T06:17:37.973Z,21.42
2017-05-27T06:18:38.555Z,21.24
2017-05-27T06:19:39.139Z,21.33
2017-05-27T06:20:39.722Z,21.43
2017-05-27T06:21:40.305Z,21.43
2017-05-27T06:22:40.889Z,21.58
2017-05-27T06:23:41.470Z,21.57
2017-05-27T06:24:42.054Z,21.46
2017-05-27T06:25:42.637Z,21.54
2017-05-27T06:26:43.221Z,21.60
2017-05-27T06:27:43.805Z,21.85
2017-05-27T06:28:44.388Z,21.79
2017-05-27T06:29:44.970Z,21.70
2017-05-27T06:30:45.552Z,21.91
2017-05-27T06:31:46.136Z,21.77
2017-05-27T06:32:46.730Z,22.04
2017-05-27T06:33:47.314Z,21.99
2017-05-27T06:34:47.895Z,21.99
2017-05-27T06:35:48.477Z,22.08
2017-05-27T06:36:49.058Z,22.14
2017-05-27T06:37:49.641Z,22.13
2017-05-27T06:38:50.223Z,22.18
2017-05-27T06:39:50.805Z,22.29
2017-05-27T06:40:51.386Z,22.33
2017-05-27T06:41:51.970Z,22.35
2017-05-27T06:42:52.551Z,22.50
2017-05-27T06:43:53.132Z,22.36
2017-05-27T06:44:53.714Z,22.54
2017-05-27T06:45:54.296Z,22.48
2017-05-27T06:46:54.880Z,22.55
2017-05-27T06:47:55.460Z,22.63
2017-05-27T06:48:56.041Z,22.57
2017-05-27T06:49:56.637Z,22.88
2017-05-27T06:50:57.215Z,22.80
2017-05-27T06:51:57.797Z,22.76
2017-05-27T06:52:58.380Z,22.84
2017-05-27T06:53:58.960Z,23.06
2017-05-27T06:54:59.541Z,23.03
2017-05-27T06:56:00.123Z,23.05
2017-05-27T06:57:00.705Z,23.06
2017-05-27T06:58:01.286Z,22.90
2017-05-27T06:59:01.880Z,23.08
2017-05-27T07:00:02.461Z,23.39
2017-05-27T07:01:03.043Z,23.31
2017-05-27T07:02:03.624Z,23.32
2017-05-27T07:03:04.206Z,23.55
2017-05-27T07:04:04.789Z,23.37
2017-05-27T07:05:05.370Z,23.12
2017-05-27T07:06:05.952Z,23.17
2017-05-27T07:07:06.535Z,23.24
2017-05-27T07:08:07.118Z,23.48
2017-05-27T07:09:07.698Z,23.54
2017-05-27T07:10:08.293Z,23.83
2017-05-27T07:11:08.875Z,23.73
2017-05-27T07:12:09.455Z,23.63
2017-05-27T07:13:10.038Z,23.71
2017-05-27T07:14:10.620Z,23.63
2017-05-27T07:15:11.202Z,23.77
2017-05-27T07:16:11.783Z,23.74
2017-05-27T07:17:12.365Z,23.68
2017-05-27T07:18:12.948Z,23.65
2017-05-27T07:19:13.530Z,23.84
2017-05-27T07:20:14.112Z,23.81
2017-05-27T07:21:14.693Z,23.84
2017-05-27T07:22:15.276Z,23.92
2017-05-27T07:23:15.859Z,24.03
2017-05-27T07:24:16.441Z,24.16
2017-05-27T07:25:17.022Z,24.29
2017-05-27T07:26:17.605Z,24.40
2017-05-27T07:27:18.185Z,24.42
2017-05-27T07:28:18.767Z,24.50
2017-05-27T07:29:19.351Z,24.20
2017-05-27T07:30:19.930Z,24.28
2017-05-27T07:31:20.519Z,24.35
2017-05-27T07:32:21.109Z,24.45
2017-05-27T07:33:21.691Z,24.28
2017-05-27T07:34:22.275Z,24.38
2017-05-27T07:35:22.854Z,24.43
2017-05-27T07:36:23.450Z,24.45
2017-05-27T07:37:24.031Z,24.60
2017-05-27T07:38:24.611Z,24.53
2017-05-27T07:39:25.199Z,24.61
2017-05-27T07:40:25.778Z,24.39
2017-05-27T07:41:26.359Z,24.57
2017-05-27T07:42:26.941Z,24.69
2017-05-27T07:43:27.526Z,24.60
2017-05-27T07:44:28.108Z,24.65
2017-05-27T07:45:28.690Z,24.57
2017-05-27T07:46:29.271Z,24.55
2017-05-27T07:47:29.853Z,24.50
2017-05-27T07:48:30.439Z,24.54
2017-05-27T07:49:31.018Z,24.69
2017-05-27T07:50:31.605Z,24.74
2017-05-27T07:51:32.184Z,24.91
2017-05-27T07:52:32.767Z,25.10
2017-05-27T07:53:33.350Z,25.26
2017-05-27T07:54:33.933Z,25.26
2017-05-27T07:55:34.513Z,25.31
2017-05-27T07:56:35.097Z,25.28
2017-05-27T07:57:35.678Z,25.33
2017-05-27T07:58:36.262Z,25.31
2017-05-27T07:59:36.843Z,25.16
2017-05-27T08:00:37.427Z,24.98
2017-05-27T08:01:38.009Z,24.98
2017-05-27T08:02:38.594Z,25.11
2017-05-27T08:03:39.173Z,25.28
2017-05-27T08:04:39.768Z,25.44
2017-05-27T08:05:40.349Z,25.46
2017-05-27T08:06:40.932Z,25.59
2017-05-27T08:07:41.515Z,25.36
2017-05-27T08:08:42.097Z,25.31
2017-05-27T08:09:42.678Z,25.66
2017-05-27T08:10:43.262Z,25.54
2017-05-27T08:11:43.857Z,25.68
2017-05-27T08:12:44.445Z,25.77
2017-05-27T08:13:45.026Z,25.70
2017-05-27T08:14:45.608Z,25.80
2017-05-27T08:15:46.208Z,25.77
2017-05-27T08:16:46.787Z,25.68
2017-05-27T08:17:47.369Z,25.84
2017-05-27T08:18:47.953Z,26.00
2017-05-27T08:19:48.537Z,26.00
2017-05-27T08:20:49.118Z,25.96
2017-05-27T08:21:49.700Z,25.98
2017-05-27T08:22:50.283Z,26.09
2017-05-27T08:23:50.866Z,26.23
2017-05-27T08:24:51.450Z,26.10
2017-05-27T08:25:52.031Z,26.23
2017-05-27T08:26:52.614Z,26.23
2017-05-27T08:27:53.197Z,26.26
2017-05-27T08:28:53.780Z,26.31
2017-05-27T08:29:54.363Z,26.63
2017-05-27T08:30:54.945Z,26.60
2017-05-27T08:31:55.529Z,26.47
2017-05-27T08:32:56.114Z,26.51
2017-05-27T08:33:56.696Z,26.62
2017-05-27T08:34:57.279Z,26.62
2017-05-27T08:35:57.861Z,26.75
2017-05-27T08:36:58.444Z,26.99
2017-05-27T08:37:59.029Z,26.74
2017-05-27T08:38:59.610Z,26.21
2017-05-27T08:40:00.243Z,26.48
2017-05-27T08:41:00.827Z,26.51
2017-05-27T08:42:01.410Z,26.45
2017-05-27T08:43:01.992Z,26.80
2017-05-27T08:44:02.578Z,26.83
2017-05-27T08:45:03.161Z,26.77
2017-05-27T08:46:03.746Z,26.92
2017-05-27T08:47:04.329Z,26.92
2017-05-27T08:48:04.911Z,27.03
2017-05-27T08:49:05.495Z,27.08
2017-05-27T08:50:06.106Z,27.00
2017-05-27T08:51:06.661Z,26.90
2017-05-27T08:52:07.244Z,26.99
2017-05-27T08:53:07.841Z,26.88
2017-05-27T08:54:08.425Z,26.95
2017-05-27T08:55:09.013Z,27.05
2017-05-27T08:56:09.593Z,26.93
2017-05-27T08:57:10.176Z,27.15
2017-05-27T08:58:10.758Z,27.40
2017-05-27T08:59:11.341Z,27.54
2017-05-27T09:00:11.926Z,27.44
2017-05-27T09:01:12.510Z,27.59
2017-05-27T09:02:13.149Z,27.45
2017-05-27T09:03:13.678Z,27.48
2017-05-27T09:04:14.263Z,27.68
2017-05-27T09:05:14.846Z,27.58
2017-05-27T09:06:15.428Z,27.85
2017-05-27T09:07:16.012Z,27.80
2017-05-27T09:08:16.624Z,27.71
2017-05-27T09:09:17.218Z,27.67
2017-05-27T09:10:17.803Z,27.96
2017-05-27T09:11:18.384Z,27.90
2017-05-27T09:12:18.967Z,27.90
2017-05-27T09:13:19.553Z,27.95
2017-05-27T09:14:20.135Z,27.82
2017-05-27T09:15:20.721Z,27.70
2017-05-27T09:16:21.305Z,27.89
2017-05-27T09:17:21.889Z,28.01
2017-05-27T09:18:22.475Z,28.10
2017-05-27T09:19:23.060Z,27.95
2017-05-27T09:20:23.643Z,28.26
2017-05-27T09:21:24.227Z,28.11
2017-05-27T09:22:24.810Z,28.19
2017-05-27T09:23:25.396Z,28.19
2017-05-27T09:24:25.992Z,28.20
2017-05-27T09:25:26.575Z,28.10
2017-05-27T09:26:27.160Z,28.23
2017-05-27T09:27:27.745Z,28.38
2017-05-27T09:28:28.330Z,28.19
2017-05-27T09:29:28.914Z,28.37
2017-05-27T09:30:29.498Z,28.30
2017-05-27T09:31:30.081Z,28.22
2017-05-27T09:32:30.671Z,28.30
2017-05-27T09:33:31.251Z,28.48
2017-05-27T09:34:31.834Z,28.44
2017-05-27T09:35:32.417Z,28.64
2017-05-27T09:36:33.001Z,28.67
2017-05-27T09:37:33.586Z,28.74
2017-05-27T09:38:34.170Z,28.76
2017-05-27T09:39:34.753Z,28.49
2017-05-27T09:40:35.337Z,28.66
2017-05-27T09:41:35.924Z,28.66
2017-05-27T09:42:36.510Z,28.32
2017-05-27T09:43:37.095Z,28.48
2017-05-27T09:44:37.693Z,28.60
2017-05-27T09:45:38.278Z,28.48
2017-05-27T09:46:38.865Z,28.54
2017-05-27T09:47:39.447Z,28.62
2017-05-27T09:48:40.033Z,28.72
2017-05-27T09:49:40.630Z,28.37
2017-05-27T09:50:41.226Z,28.62
2017-05-27T09:51:41.811Z,28.76
2017-05-27T09:52:42.395Z,29.10
2017-05-27T09:53:42.978Z,29.13
2017-05-27T09:54:43.563Z,29.02
2017-05-27T09:55:44.151Z,29.01
2017-05-27T09:56:44.737Z,28.85
2017-05-27T09:57:45.318Z,28.88
2017-05-27T09:58:45.904Z,28.69
2017-05-27T09:59:46.489Z,28.96
2017-05-27T10:00:47.073Z,29.04
2017-05-27T10:01:47.657Z,28.82
2017-05-27T10:02:48.243Z,28.91
2017-05-27T10:03:48.828Z,28.82
2017-05-27T10:04:49.411Z,28.91
2017-05-27T10:05:50.005Z,28.96
2017-05-27T10:06:50.581Z,29.08
2017-05-27T10:07:51.166Z,29.05
2017-05-27T10:08:51.802Z,28.97
2017-05-27T10:09:52.347Z,28.74
2017-05-27T10:10:52.932Z,28.76
2017-05-27T10:11:53.518Z,29.08
2017-05-27T10:12:54.115Z,29.41
2017-05-27T10:13:54.700Z,29.22
2017-05-27T10:14:55.284Z,29.26
2017-05-27T10:15:55.882Z,29.17
2017-05-27T10:16:56.465Z,29.20
2017-05-27T10:17:57.050Z,29.38
2017-05-27T10:18:57.636Z,29.45
2017-05-27T10:19:58.221Z,29.56
2017-05-27T10:20:58.805Z,29.65
2017-05-27T10:21:59.396Z,29.45
2017-05-27T10:22:59.976Z,29.32
2017-05-27T10:24:00.560Z,29.39
2017-05-27T10:25:01.144Z,29.13
2017-05-27T10:26:01.729Z,29.24
2017-05-27T10:27:02.315Z,29.32
2017-05-27T10:28:02.899Z,29.76
2017-05-27T10:29:03.489Z,29.69
2017-05-27T10:30:04.069Z,29.57
2017-05-27T10:31:04.655Z,29.60
2017-05-27T10:32:05.240Z,29.39
2017-05-27T10:33:05.881Z,29.71
2017-05-27T10:34:06.466Z,29.81
2017-05-27T10:35:07.051Z,29.69
2017-05-27T10:36:07.636Z,29.66
2017-05-27T10:37:08.233Z,29.87
2017-05-27T10:38:08.818Z,29.93
2017-05-27T10:39:09.405Z,29.78
2017-05-27T10:40:10.002Z,29.94
2017-05-27T10:41:10.589Z,29.79
2017-05-27T10:42:11.174Z,29.73
2017-05-27T10:43:11.759Z,29.84
2017-05-27T10:44:12.347Z,29.60
2017-05-27T10:45:12.932Z,29.69
2017-05-27T10:46:13.516Z,29.97
2017-05-27T10:47:14.102Z,30.05
2017-05-27T10:48:14.700Z,30.05
2017-05-27T10:49:15.299Z,29.93
2017-05-27T10:50:15.884Z,29.97
2017-05-27T10:51:16.469Z,29.81
2017-05-27T10:52:17.056Z,30.08
2017-05-27T10:53:17.652Z,30.02
2017-05-27T10:54:18.238Z,30.09
2017-05-27T10:55:18.825Z,30.18
2017-05-27T10:56:19.409Z,30.10
2017-05-27T10:57:19.995Z,30.13
2017-05-27T10:58:20.581Z,30.25
2017-05-27T10:59:21.167Z,30.21
2017-05-27T11:00:21.765Z,30.18
2017-05-27T11:01:22.350Z,30.27
2017-05-27T11:02:22.934Z,30.28
2017-05-27T11:03:23.519Z,30.13
2017-05-27T11:04:24.106Z,30.21
2017-05-27T11:05:24.691Z,30.13
2017-05-27T11:06:25.276Z,30.25
2017-05-27T11:07:25.861Z,29.88
2017-05-27T11:08:26.447Z,29.94
2017-05-27T11:09:27.046Z,29.76
2017-05-27T11:10:27.634Z,29.86
2017-05-27T11:11:28.217Z,29.93
2017-05-27T11:12:28.804Z,30.15
2017-05-27T11:13:29.389Z,30.31
2017-05-27T11:14:29.974Z,30.12
2017-05-27T11:15:30.561Z,30.35
2017-05-27T11:16:31.146Z,30.44
2017-05-27T11:17:31.731Z,30.44
2017-05-27T11:18:32.317Z,30.35
2017-05-27T11:19:32.915Z,30.31
2017-05-27T11:20:33.500Z,30.39
2017-05-27T11:21:34.089Z,30.44
2017-05-27T11:22:34.674Z,30.57
2017-05-27T11:23:35.259Z,30.09
2017-05-27T11:24:35.846Z,29.98
2017-05-27T11:25:36.430Z,30.06
2017-05-27T11:26:37.020Z,30.40
2017-05-27T11:27:37.619Z,30.31
2017-05-27T11:28:38.206Z,30.47
2017-05-27T11:29:38.793Z,30.50
2017-05-27T11:30:39.392Z,30.57
2017-05-27T11:31:39.991Z,30.72
2017-05-27T11:32:40.579Z,30.44
2017-05-27T11:33:41.164Z,30.40
2017-05-27T11:34:41.752Z,30.47
2017-05-27T11:35:42.337Z,30.53
2017-05-27T11:36:42.937Z,30.43
2017-05-27T11:37:43.523Z,30.66
2017-05-27T11:38:44.112Z,30.83
2017-05-27T11:39:44.698Z,30.63
2017-05-27T11:40:45.284Z,30.59
2017-05-27T11:41:45.873Z,30.61
2017-05-27T11:42:46.457Z,30.65
2017-05-27T11:43:47.042Z,30.70
2017-05-27T11:44:47.629Z,30.84
2017-05-27T11:45:48.216Z,30.53
2017-05-27T11:46:48.804Z,30.72
2017-05-27T11:47:49.390Z,30.92
2017-05-27T11:48:49.978Z,30.90
2017-05-27T11:49:50.566Z,31.09
2017-05-27T11:50:51.153Z,30.77
2017-05-27T11:51:51.739Z,30.70
2017-05-27T11:52:52.337Z,30.47
2017-05-27T11:53:52.926Z,30.63
2017-05-27T11:54:53.513Z,30.62
2017-05-27T11:55:54.098Z,30.48
2017-05-27T11:56:54.685Z,30.66
2017-05-27T11:57:55.272Z,31.14
2017-05-27T11:58:55.860Z,31.14
2017-05-27T11:59:56.446Z,31.10
2017-05-27T12:00:57.034Z,31.14
2017-05-27T12:01:57.621Z,30.91
2017-05-27T12:02:58.208Z,30.70
2017-05-27T12:03:58.792Z,30.57
2017-05-27T12:04:59.381Z,30.66
2017-05-27T12:05:59.968Z,30.92
2017-05-27T12:07:00.567Z,30.90
2017-05-27T12:08:01.156Z,31.27
2017-05-27T12:09:01.744Z,31.17
2017-05-27T12:10:02.332Z,30.99
2017-05-27T12:11:02.921Z,31.27
2017-05-27T12:12:03.508Z,31.06
2017-05-27T12:13:04.095Z,31.14
2017-05-27T12:14:04.689Z,31.00
2017-05-27T12:15:05.273Z,31.07
2017-05-27T12:16:05.858Z,30.92
2017-05-27T12:17:06.447Z,31.15
2017-05-27T12:18:07.032Z,30.84
2017-05-27T12:19:07.618Z,30.85
2017-05-27T12:20:08.207Z,31.05
2017-05-27T12:21:08.793Z,31.17
2017-05-27T12:22:09.379Z,31.17
2017-05-27T12:23:09.966Z,31.17
2017-05-27T12:24:10.553Z,31.09
2017-05-27T12:25:11.143Z,31.24
2017-05-27T12:26:11.729Z,31.51
2017-05-27T12:27:12.330Z,31.47
2017-05-27T12:28:12.917Z,31.56
2017-05-27T12:29:13.505Z,31.77
2017-05-27T12:30:14.092Z,31.59
2017-05-27T12:31:14.678Z,31.62
2017-05-27T12:32:15.266Z,31.40
2017-05-27T12:33:15.852Z,31.54
2017-05-27T12:34:16.440Z,31.51
2017-05-27T12:35:17.031Z,31.36
2017-05-27T12:36:17.616Z,30.84
2017-05-27T12:37:18.204Z,31.00
2017-05-27T12:38:18.789Z,31.14
2017-05-27T12:39:19.377Z,31.46
2017-05-27T12:40:19.966Z,31.51
2017-05-27T12:41:20.553Z,31.43
2017-05-27T12:42:21.142Z,31.46
2017-05-27T12:43:21.730Z,31.40
2017-05-27T12:44:22.317Z,31.58
2017-05-27T12:45:22.902Z,31.46
2017-05-27T12:46:23.491Z,31.64
2017-05-27T12:47:24.089Z,31.40
2017-05-27T12:48:24.678Z,31.44
2017-05-27T12:49:25.265Z,31.61
2017-05-27T12:50:25.852Z,31.69
2017-05-27T12:51:26.439Z,31.84
2017-05-27T12:52:27.029Z,31.36
2017-05-27T12:53:27.621Z,31.44
2017-05-27T12:54:28.202Z,31.39
2017-05-27T12:55:28.790Z,31.66
2017-05-27T12:56:29.390Z,31.46
2017-05-27T12:57:29.977Z,31.54
2017-05-27T12:58:30.567Z,31.80
2017-05-27T12:59:31.152Z,31.78